Seligman, Missouri
Current Conditions -  °F | °C
As of 6:57 PM on Monday 20 Oct 2014 (Local Time) from KROG Reporting Station
Clear Clear  
Wind Chill: 63°   Ceiling: Unl
Heat Index: 63°   Visibility: 10mi
Dew Point: 57°   Wind: 5mph
Humidity: 81%   Direction: 220°SW
Pressure: 30.06"   Gusts: NA
Location:  36.52°N, 93.94°W
Report Text: KROG 202357Z 22004KT 10SM CLR 17/14 A3006 RMK AO2 SLP174 T01720139 10200 20172 53002
Loading
Personal Weather Stations






























Interactive Weather Map
Tropical Storm Tracking
New forecast layout! Learn more

10-Day Weather Forecast

Advertisements
Track Severe Weather on mobile